createdAt,value
2016-06-02T00:00:34.566Z,17.35
2016-06-02T00:01:34.585Z,17.29
2016-06-02T00:02:34.619Z,17.32
2016-06-02T00:03:34.652Z,17.28
2016-06-02T00:04:34.734Z,17.25
2016-06-02T00:05:34.736Z,17.29
2016-06-02T00:06:34.785Z,17.38
2016-06-02T00:07:34.820Z,17.35
2016-06-02T00:08:34.885Z,17.33
2016-06-02T00:09:35.623Z,17.35
2016-06-02T00:10:34.640Z,17.32
2016-06-02T00:11:35.033Z,17.33
2016-06-02T00:12:35.037Z,17.36
2016-06-02T00:13:35.070Z,17.3
2016-06-02T00:14:34.807Z,17.33
2016-06-02T00:15:34.841Z,17.26
2016-06-02T00:16:35.203Z,17.35
2016-06-02T00:17:35.253Z,17.25
2016-06-02T00:18:35.334Z,17.3
2016-06-02T00:19:35.211Z,17.22
2016-06-02T00:20:35.355Z,17.17
2016-06-02T00:21:35.420Z,17.17
2016-06-02T00:22:35.500Z,17.29
2016-06-02T00:23:35.488Z,17.22
2016-06-02T00:24:35.694Z,17.25
2016-06-02T00:25:35.477Z,17.15
2016-06-02T00:26:35.621Z,17.2
2016-06-02T00:27:35.639Z,17.22
2016-06-02T00:28:35.688Z,17.08
2016-06-02T00:29:35.802Z,17.17
2016-06-02T00:30:35.804Z,17.13
2016-06-02T00:31:35.821Z,17.14
2016-06-02T00:32:35.887Z,17.11
2016-06-02T00:33:35.890Z,17.15
2016-06-02T00:34:35.783Z,17.14
2016-06-02T00:35:36.004Z,17.13
2016-06-02T00:36:36.054Z,17.11
2016-06-02T00:37:36.073Z,17.03
2016-06-02T00:38:36.107Z,17.1
2016-06-02T00:39:36.171Z,17.04
2016-06-02T00:40:36.221Z,17.03
2016-06-02T00:41:36.379Z,17.1
2016-06-02T00:42:36.289Z,17.1
2016-06-02T00:43:36.339Z,17.04
2016-06-02T00:44:36.342Z,17.11
2016-06-02T00:45:36.390Z,17
2016-06-02T00:46:36.440Z,17.03
2016-06-02T00:47:36.475Z,17.03
2016-06-02T00:48:36.523Z,17.06
2016-06-02T00:49:36.558Z,17
2016-06-02T00:50:36.592Z,17.03
2016-06-02T00:51:36.501Z,17.11
2016-06-02T00:52:36.675Z,17.07
2016-06-02T00:53:36.725Z,17.04
2016-06-02T00:54:36.947Z,17
2016-06-02T00:55:37.292Z,17.06
2016-06-02T00:56:36.842Z,17.06
2016-06-02T00:57:36.766Z,16.99
2016-06-02T00:58:36.800Z,17.07
2016-06-02T00:59:36.960Z,17.06
2016-06-02T01:00:36.994Z,17.06
2016-06-02T01:01:37.074Z,17.13
2016-06-02T01:02:36.952Z,17.06
2016-06-02T01:03:37.127Z,17.11
2016-06-02T01:04:37.035Z,17.04
2016-06-02T01:05:37.069Z,17.06
2016-06-02T01:06:37.244Z,17.04
2016-06-02T01:07:37.293Z,17.1
2016-06-02T01:08:37.343Z,17.04
2016-06-02T01:09:37.768Z,16.99
2016-06-02T01:10:38.270Z,17.11
2016-06-02T01:11:37.492Z,17.08
2016-06-02T01:12:37.495Z,17.11
2016-06-02T01:13:37.545Z,17.08
2016-06-02T01:14:37.579Z,17.14
2016-06-02T01:15:37.690Z,17.15
2016-06-02T01:16:37.662Z,17.23
2016-06-02T01:17:37.556Z,17.23
2016-06-02T01:18:37.792Z,17.15
2016-06-02T01:19:37.811Z,17.26
2016-06-02T01:20:37.704Z,17.32
2016-06-02T01:21:37.878Z,17.22
2016-06-02T01:22:37.772Z,17.29
2016-06-02T01:23:37.978Z,17.35
2016-06-02T01:24:38.778Z,17.29
2016-06-02T01:25:38.498Z,17.25
2016-06-02T01:26:37.923Z,17.3
2016-06-02T01:27:38.114Z,17.38
2016-06-02T01:28:38.163Z,17.36
2016-06-02T01:29:38.228Z,17.43
2016-06-02T01:30:38.247Z,17.36
2016-06-02T01:31:38.280Z,17.38
2016-06-02T01:32:38.314Z,17.4
2016-06-02T01:33:38.411Z,17.43
2016-06-02T01:34:38.413Z,17.3
2016-06-02T01:35:38.447Z,17.43
2016-06-02T01:36:38.325Z,17.51
2016-06-02T01:37:38.359Z,17.44
2016-06-02T01:38:38.565Z,17.38
2016-06-02T01:39:39.271Z,17.38
2016-06-02T01:40:39.274Z,17.43
2016-06-02T01:41:38.698Z,17.41
2016-06-02T01:42:38.732Z,17.41
2016-06-02T01:43:38.782Z,17.38
2016-06-02T01:44:38.862Z,17.35
2016-06-02T01:45:38.771Z,17.4
2016-06-02T01:46:38.742Z,17.33
2016-06-02T01:47:38.948Z,17.4
2016-06-02T01:48:39.029Z,17.35
2016-06-02T01:49:39.031Z,17.43
2016-06-02T01:50:39.050Z,17.41
2016-06-02T01:51:39.100Z,17.36
2016-06-02T01:52:39.150Z,17.46
2016-06-02T01:53:39.183Z,17.4
2016-06-02T01:54:39.092Z,17.38
2016-06-02T01:55:39.907Z,17.48
2016-06-02T01:56:39.317Z,17.4
2016-06-02T01:57:39.349Z,17.35
2016-06-02T01:58:39.244Z,17.38
2016-06-02T01:59:39.464Z,17.44
2016-06-02T02:00:39.483Z,17.43
2016-06-02T02:01:39.532Z,17.43
2016-06-02T02:02:39.613Z,17.38
2016-06-02T02:03:39.600Z,17.33
2016-06-02T02:04:39.635Z,17.36
2016-06-02T02:05:39.684Z,17.4
2016-06-02T02:06:39.718Z,17.41
2016-06-02T02:07:39.767Z,17.41
2016-06-02T02:08:39.818Z,17.32
2016-06-02T02:09:39.867Z,17.32
2016-06-02T02:10:40.338Z,17.28
2016-06-02T02:11:39.919Z,17.18
2016-06-02T02:12:39.985Z,17.26
2016-06-02T02:13:40.049Z,17.22
2016-06-02T02:14:39.926Z,17.23
2016-06-02T02:15:40.101Z,17.18
2016-06-02T02:16:40.151Z,17.18
2016-06-02T02:17:40.185Z,17.14
2016-06-02T02:18:40.219Z,17.08
2016-06-02T02:19:40.097Z,17
2016-06-02T02:20:40.302Z,16.98
2016-06-02T02:21:40.384Z,16.95
2016-06-02T02:22:40.386Z,16.95
2016-06-02T02:23:40.420Z,17
2016-06-02T02:24:40.500Z,16.95
2016-06-02T02:25:40.535Z,16.88
2016-06-02T02:26:40.552Z,16.77
2016-06-02T02:27:40.430Z,16.99
2016-06-02T02:28:40.668Z,16.96
2016-06-02T02:29:40.514Z,16.88
2016-06-02T02:30:40.704Z,16.8
2016-06-02T02:31:40.785Z,16.92
2016-06-02T02:32:40.819Z,16.96
2016-06-02T02:33:40.838Z,16.99
2016-06-02T02:34:40.871Z,16.99
2016-06-02T02:35:40.921Z,16.96
2016-06-02T02:36:40.814Z,16.93
2016-06-02T02:37:40.989Z,16.95
2016-06-02T02:38:41.038Z,16.96
2016-06-02T02:39:41.071Z,17.08
2016-06-02T02:40:41.138Z,16.95
2016-06-02T02:41:41.171Z,17
2016-06-02T02:42:41.205Z,17.03
2016-06-02T02:43:41.301Z,17.04
2016-06-02T02:44:41.289Z,17.06
2016-06-02T02:45:41.323Z,17.04
2016-06-02T02:46:41.294Z,17.1
2016-06-02T02:47:41.407Z,17.03
2016-06-02T02:48:41.440Z,17.04
2016-06-02T02:49:41.505Z,16.99
2016-06-02T02:50:41.540Z,17.07
2016-06-02T02:51:41.573Z,17
2016-06-02T02:52:41.623Z,17.04
2016-06-02T02:53:41.688Z,17.04
2016-06-02T02:54:41.753Z,17.1
2016-06-02T02:55:42.037Z,17.11
2016-06-02T02:56:41.775Z,17.1
2016-06-02T02:57:41.855Z,17.13
2016-06-02T02:58:41.858Z,17.1
2016-06-02T02:59:41.892Z,17.08
2016-06-02T03:00:41.972Z,17.07
2016-06-02T03:01:42.006Z,17.14
2016-06-02T03:02:42.056Z,17.11
2016-06-02T03:03:42.059Z,17.18
2016-06-02T03:04:42.124Z,17.11
2016-06-02T03:05:42.141Z,17.22
2016-06-02T03:06:42.191Z,17.1
2016-06-02T03:07:42.226Z,17.18
2016-06-02T03:08:42.135Z,17.06
2016-06-02T03:09:42.919Z,17.1
2016-06-02T03:10:42.359Z,17.1
2016-06-02T03:11:42.424Z,17.13
2016-06-02T03:12:42.286Z,17.13
2016-06-02T03:13:42.477Z,17.1
2016-06-02T03:14:42.370Z,17.1
2016-06-02T03:15:42.419Z,17.08
2016-06-02T03:16:42.609Z,17.08
2016-06-02T03:17:42.628Z,17.06
2016-06-02T03:18:42.676Z,17.06
2016-06-02T03:19:42.711Z,17.08
2016-06-02T03:20:42.604Z,17.14
2016-06-02T03:21:42.810Z,17.04
2016-06-02T03:22:42.547Z,17.06
2016-06-02T03:23:42.909Z,17.07
2016-06-02T03:24:43.193Z,16.95
2016-06-02T03:25:43.477Z,16.99
2016-06-02T03:26:42.855Z,16.88
2016-06-02T03:27:43.061Z,16.95
2016-06-02T03:28:42.963Z,16.93
2016-06-02T03:29:43.022Z,16.93
2016-06-02T03:30:43.113Z,16.95
2016-06-02T03:31:43.172Z,16.95
2016-06-02T03:32:43.403Z,16.99
2016-06-02T03:33:43.431Z,17.03
2016-06-02T03:34:43.350Z,16.99
2016-06-02T03:35:43.377Z,16.99
2016-06-02T03:36:43.592Z,16.96
2016-06-02T03:37:43.635Z,17
2016-06-02T03:38:43.689Z,16.98
2016-06-02T03:39:44.506Z,17.08
2016-06-02T03:40:43.856Z,17.03
2016-06-02T03:41:43.846Z,17.03
2016-06-02T03:42:43.726Z,16.99
2016-06-02T03:43:43.902Z,17.04
2016-06-02T03:44:43.969Z,16.95
2016-06-02T03:45:43.832Z,16.98
2016-06-02T03:46:44.023Z,16.95
2016-06-02T03:47:44.074Z,16.95
2016-06-02T03:48:43.999Z,16.93
2016-06-02T03:49:44.143Z,16.89
2016-06-02T03:50:44.177Z,17.03
2016-06-02T03:51:44.227Z,16.98
2016-06-02T03:52:44.136Z,16.95
2016-06-02T03:53:44.311Z,16.95
2016-06-02T03:54:44.361Z,16.99
2016-06-02T03:55:44.427Z,16.99
2016-06-02T03:56:44.446Z,17.04
2016-06-02T03:57:44.480Z,17.03
2016-06-02T03:58:44.545Z,17.06
2016-06-02T03:59:44.610Z,17.04
2016-06-02T04:00:44.597Z,17.11
2016-06-02T04:01:44.335Z,17.08
2016-06-02T04:02:44.712Z,17.08
2016-06-02T04:03:44.731Z,17.11
2016-06-02T04:04:44.764Z,17.11
2016-06-02T04:05:44.814Z,17.08
2016-06-02T04:06:44.879Z,17.07
2016-06-02T04:07:44.882Z,17.1
2016-06-02T04:08:44.775Z,17.11
2016-06-02T04:09:44.966Z,17.08
2016-06-02T04:10:45.077Z,17.08
2016-06-02T04:11:44.908Z,17.06
2016-06-02T04:12:45.082Z,17.15
2016-06-02T04:13:45.147Z,17.1
2016-06-02T04:14:45.182Z,17.07
2016-06-02T04:15:45.216Z,17.11
2016-06-02T04:16:45.249Z,17.11
2016-06-02T04:17:45.330Z,17.07
2016-06-02T04:18:45.349Z,17.11
2016-06-02T04:19:45.382Z,17.14
2016-06-02T04:20:45.448Z,17.07
2016-06-02T04:21:45.466Z,17.15
2016-06-02T04:22:45.516Z,17.08
2016-06-02T04:23:45.534Z,17.1
2016-06-02T04:24:45.474Z,17.04
2016-06-02T04:25:46.962Z,17.06
2016-06-02T04:26:45.667Z,17.04
2016-06-02T04:27:45.701Z,16.96
2016-06-02T04:28:45.782Z,16.95
2016-06-02T04:29:45.629Z,16.85
2016-06-02T04:30:45.851Z,16.88
2016-06-02T04:31:45.931Z,16.86
2016-06-02T04:32:45.902Z,16.74
2016-06-02T04:33:45.951Z,16.71
2016-06-02T04:34:45.876Z,16.7
2016-06-02T04:35:46.035Z,16.65
2016-06-02T04:36:45.928Z,16.6
2016-06-02T04:37:45.978Z,16.6
2016-06-02T04:38:46.153Z,16.58
2016-06-02T04:39:46.671Z,16.65
2016-06-02T04:40:46.299Z,16.6
2016-06-02T04:41:46.270Z,16.65
2016-06-02T04:42:46.367Z,16.58
2016-06-02T04:43:46.369Z,16.67
2016-06-02T04:44:46.403Z,16.58
2016-06-02T04:45:46.483Z,16.56
2016-06-02T04:46:46.487Z,16.56
2016-06-02T04:47:46.521Z,16.65
2016-06-02T04:48:46.571Z,16.71
2016-06-02T04:49:46.651Z,16.68
2016-06-02T04:50:46.513Z,16.7
2016-06-02T04:51:46.687Z,16.74
2016-06-02T04:52:46.737Z,16.78
2016-06-02T04:53:46.802Z,16.8
2016-06-02T04:54:47.368Z,16.85
2016-06-02T04:55:46.870Z,16.74
2016-06-02T04:56:46.904Z,16.89
2016-06-02T04:57:46.938Z,16.83
2016-06-02T04:58:46.987Z,16.75
2016-06-02T04:59:47.037Z,16.81
2016-06-02T05:00:47.134Z,16.86
2016-06-02T05:01:47.402Z,16.86
2016-06-02T05:02:47.468Z,16.74
2016-06-02T05:03:47.189Z,16.8
2016-06-02T05:04:47.207Z,16.81
2016-06-02T05:05:47.256Z,16.74
2016-06-02T05:06:47.353Z,16.89
2016-06-02T05:07:47.355Z,16.78
2016-06-02T05:08:47.374Z,16.83
2016-06-02T05:09:47.439Z,16.83
2016-06-02T05:10:48.411Z,16.81
2016-06-02T05:11:47.491Z,16.77
2016-06-02T05:12:47.541Z,16.75
2016-06-02T05:13:47.591Z,16.86
2016-06-02T05:14:47.672Z,16.89
2016-06-02T05:15:47.518Z,16.85
2016-06-02T05:16:47.708Z,16.81
2016-06-02T05:17:47.757Z,16.88
2016-06-02T05:18:47.792Z,16.83
2016-06-02T05:19:48.654Z,16.86
2016-06-02T05:20:47.906Z,16.75
2016-06-02T05:21:49.597Z,16.85
2016-06-02T05:22:49.802Z,16.8
2016-06-02T05:23:49.086Z,16.89
2016-06-02T05:25:01.229Z,16.83
2016-06-02T05:25:49.451Z,16.83
2016-06-02T05:26:49.157Z,16.83
2016-06-02T05:27:48.894Z,16.95
2016-06-02T05:28:49.537Z,16.92
2016-06-02T05:29:50.165Z,16.89
2016-06-02T05:30:49.230Z,16.89
2016-06-02T05:31:49.748Z,16.9
2016-06-02T05:32:49.892Z,16.88
2016-06-02T05:33:49.332Z,16.98
2016-06-02T05:34:49.976Z,16.98
2016-06-02T05:35:50.165Z,16.98
2016-06-02T05:36:50.715Z,16.95
2016-06-02T05:37:50.515Z,17
2016-06-02T05:38:49.533Z,16.95
2016-06-02T05:39:49.395Z,16.99
2016-06-02T05:40:50.539Z,16.98
2016-06-02T05:41:50.150Z,17
2016-06-02T05:42:49.903Z,17.03
2016-06-02T05:43:50.311Z,17.07
2016-06-02T05:44:50.299Z,17.08
2016-06-02T05:45:50.144Z,17.13
2016-06-02T05:46:50.977Z,17.18
2016-06-02T05:47:50.588Z,17.1
2016-06-02T05:48:49.747Z,17.2
2016-06-02T05:49:50.094Z,17.18
2016-06-02T05:50:50.330Z,17.22
2016-06-02T05:51:50.661Z,17.18
2016-06-02T05:52:50.913Z,17.2
2016-06-02T05:53:50.449Z,17.36
2016-06-02T05:54:50.904Z,17.38
2016-06-02T05:55:50.657Z,17.33
2016-06-02T05:56:50.815Z,17.41
2016-06-02T05:57:50.646Z,17.36
2016-06-02T05:58:50.415Z,17.36
2016-06-02T05:59:50.543Z,17.4
2016-06-02T06:00:51.451Z,17.36
2016-06-02T06:01:50.095Z,17.44
2016-06-02T06:02:49.660Z,17.5
2016-06-02T06:03:49.678Z,17.51
2016-06-02T06:04:51.431Z,17.59
2016-06-02T06:05:51.089Z,17.64
2016-06-02T06:06:50.827Z,17.63
2016-06-02T06:07:50.673Z,17.71
2016-06-02T06:08:50.661Z,17.81
2016-06-02T06:09:49.945Z,17.76
2016-06-02T06:10:49.775Z,17.74
2016-06-02T06:11:49.965Z,17.85
2016-06-02T06:12:50.015Z,17.82
2016-06-02T06:13:50.064Z,17.94
2016-06-02T06:14:53.552Z,17.94
2016-06-02T06:15:53.242Z,17.99
2016-06-02T06:16:52.369Z,17.99
2016-06-02T06:17:52.481Z,17.99
2016-06-02T06:18:54.297Z,18.02
2016-06-02T06:19:57.800Z,18.03
2016-06-02T06:20:52.897Z,18.07
2016-06-02T06:21:51.663Z,18.06
2016-06-02T06:22:51.449Z,18.12
2016-06-02T06:23:50.717Z,18.1
2016-06-02T06:24:50.985Z,18.17
2016-06-02T06:25:50.832Z,18.15
2016-06-02T06:26:50.585Z,18.27
2016-06-02T06:27:50.868Z,18.36
2016-06-02T06:28:50.715Z,18.33
2016-06-02T06:29:51.280Z,18.37
2016-06-02T06:30:51.126Z,18.39
2016-06-02T06:31:50.973Z,18.47
2016-06-02T06:32:50.835Z,18.5
2016-06-02T06:33:50.884Z,18.61
2016-06-02T06:34:50.793Z,18.62
2016-06-02T06:35:51.062Z,18.73
2016-06-02T06:36:51.096Z,18.95
2016-06-02T06:37:51.707Z,19.11
2016-06-02T06:38:50.976Z,19.17
2016-06-02T06:39:51.447Z,19.4
2016-06-02T06:40:51.043Z,19.65
2016-06-02T06:41:51.234Z,19.66
2016-06-02T06:42:52.970Z,19.7
2016-06-02T06:43:51.426Z,19.75
2016-06-02T06:44:51.553Z,19.86
2016-06-02T06:45:51.386Z,19.78
2016-06-02T06:46:51.497Z,19.79
2016-06-02T06:47:51.516Z,19.86
2016-06-02T06:48:51.955Z,19.84
2016-06-02T06:49:51.583Z,19.9
2016-06-02T06:50:51.617Z,19.91
2016-06-02T06:51:52.635Z,19.8
2016-06-02T06:52:51.700Z,19.87
2016-06-02T06:53:51.735Z,19.93
2016-06-02T06:54:51.660Z,19.88
2016-06-02T06:55:51.537Z,19.9
2016-06-02T06:56:51.868Z,19.91
2016-06-02T06:57:51.948Z,19.86
2016-06-02T06:58:51.966Z,19.8
2016-06-02T06:59:52.923Z,19.88
2016-06-02T07:00:52.676Z,19.78
2016-06-02T07:01:52.599Z,19.73
2016-06-02T07:02:52.524Z,19.88
2016-06-02T07:03:52.168Z,19.8
2016-06-02T07:04:53.342Z,19.87
2016-06-02T07:05:53.298Z,19.8
2016-06-02T07:06:52.425Z,19.69
2016-06-02T07:07:53.584Z,19.78
2016-06-02T07:08:53.572Z,19.72
2016-06-02T07:09:52.621Z,19.65
2016-06-02T07:10:53.920Z,19.61
2016-06-02T07:11:52.409Z,19.54
2016-06-02T07:12:52.801Z,19.47
2016-06-02T07:13:52.647Z,19.53
2016-06-02T07:14:52.635Z,19.4
2016-06-02T07:15:52.716Z,19.43
2016-06-02T07:16:52.953Z,19.36
2016-06-02T07:17:53.112Z,19.38
2016-06-02T07:18:52.975Z,19.29
2016-06-02T07:19:53.101Z,19.23
2016-06-02T07:20:53.714Z,19.28
2016-06-02T07:21:53.686Z,19.23
2016-06-02T07:22:54.922Z,19.17
2016-06-02T07:23:54.550Z,19.17
2016-06-02T07:24:55.053Z,19.21
2016-06-02T07:25:55.774Z,19.14
2016-06-02T07:26:53.949Z,19.21
2016-06-02T07:27:54.014Z,19.17
2016-06-02T07:28:54.797Z,19.2
2016-06-02T07:29:54.535Z,19.23
2016-06-02T07:30:54.272Z,19.21
2016-06-02T07:31:54.618Z,19.23
2016-06-02T07:32:55.183Z,19.31
2016-06-02T07:33:54.827Z,19.31
2016-06-02T07:34:55.064Z,19.35
2016-06-02T07:35:53.582Z,19.25
2016-06-02T07:36:53.648Z,19.38
2016-06-02T07:37:54.790Z,19.36
2016-06-02T07:38:54.996Z,19.33
2016-06-02T07:39:57.156Z,19.54
2016-06-02T07:40:54.659Z,19.51
2016-06-02T07:41:53.786Z,19.61
2016-06-02T07:42:55.804Z,19.8
2016-06-02T07:43:55.353Z,19.75
2016-06-02T07:44:53.809Z,19.87
2016-06-02T07:45:53.875Z,19.93
2016-06-02T07:46:54.003Z,19.91
2016-06-02T07:47:54.115Z,19.95
2016-06-02T07:48:53.930Z,19.93
2016-06-02T07:49:54.136Z,19.98
2016-06-02T07:50:54.216Z,20
2016-06-02T07:51:54.250Z,19.95
2016-06-02T07:52:54.269Z,19.97
2016-06-02T07:53:54.147Z,20.1
2016-06-02T07:54:54.071Z,20.06
2016-06-02T07:55:55.667Z,20.1
2016-06-02T07:56:54.435Z,20.05
2016-06-02T07:57:54.485Z,20.08
2016-06-02T07:58:54.535Z,20.15
2016-06-02T07:59:54.600Z,20.25
2016-06-02T08:00:54.697Z,20.25
2016-06-02T08:01:54.715Z,20.21
2016-06-02T08:02:54.545Z,20.27
2016-06-02T08:03:55.173Z,20.27
2016-06-02T08:04:55.629Z,20.39
2016-06-02T08:05:55.459Z,20.39
2016-06-02T08:06:56.885Z,20.41
2016-06-02T08:07:58.340Z,20.47
2016-06-02T08:08:57.358Z,20.51
2016-06-02T08:09:58.346Z,20.54
2016-06-02T08:10:59.426Z,20.53
2016-06-02T08:11:59.287Z,20.47
2016-06-02T08:12:59.135Z,20.47
2016-06-02T08:13:59.450Z,20.46
2016-06-02T08:14:58.858Z,20.59
2016-06-02T08:15:58.548Z,20.59
2016-06-02T08:17:01.661Z,20.68
2016-06-02T08:17:58.008Z,20.72
2016-06-02T08:18:58.806Z,20.83
2016-06-02T08:19:59.607Z,20.87
2016-06-02T08:20:57.687Z,20.99
2016-06-02T08:21:57.144Z,20.93
2016-06-02T08:22:57.583Z,21.05
2016-06-02T08:23:57.977Z,21.09
2016-06-02T08:24:59.402Z,21.13
2016-06-02T08:25:57.889Z,21.04
2016-06-02T08:27:30.063Z,21.08
2016-06-02T08:27:58.456Z,21.11
2016-06-02T08:28:58.193Z,21.14
2016-06-02T08:29:58.258Z,21.27
2016-06-02T08:30:57.105Z,21.2
2016-06-02T08:31:56.842Z,21.21
2016-06-02T08:33:00.110Z,21.17
2016-06-02T08:33:58.004Z,21.17
2016-06-02T08:35:01.241Z,21.2
2016-06-02T08:35:59.072Z,21.21
2016-06-02T08:36:57.980Z,21.24
2016-06-02T08:37:56.404Z,21.36
2016-06-02T08:38:57.267Z,21.38
2016-06-02T08:39:57.145Z,21.41
2016-06-02T08:40:56.881Z,21.56
2016-06-02T08:41:58.587Z,21.61
2016-06-02T08:42:57.246Z,21.6
2016-06-02T08:43:58.186Z,21.76
2016-06-02T08:44:58.158Z,21.76
2016-06-02T08:45:58.926Z,21.83
2016-06-02T08:46:58.148Z,21.99
2016-06-02T08:47:59.244Z,22.16
2016-06-02T08:48:59.622Z,22.27
2016-06-02T08:49:58.390Z,22.32
2016-06-02T08:50:58.767Z,22.41
2016-06-02T08:51:59.646Z,22.43
2016-06-02T08:53:02.086Z,22.5
2016-06-02T08:53:58.448Z,22.57
2016-06-02T08:55:00.028Z,22.62
2016-06-02T08:56:02.953Z,22.6
2016-06-02T08:57:01.205Z,22.69
2016-06-02T08:58:01.036Z,22.77
2016-06-02T08:59:00.774Z,22.87
2016-06-02T09:00:04.480Z,22.92
2016-06-02T09:01:03.686Z,23.02
2016-06-02T09:02:00.969Z,23.02
2016-06-02T09:03:00.347Z,23.12
2016-06-02T09:04:00.021Z,23.31
2016-06-02T09:04:58.572Z,23.32
2016-06-02T09:06:01.168Z,23.46
2016-06-02T09:06:58.874Z,23.58
2016-06-02T09:08:01.721Z,23.65
2016-06-02T09:09:01.973Z,23.8
2016-06-02T09:10:04.991Z,23.87
2016-06-02T09:11:13.369Z,23.89
2016-06-02T09:12:03.746Z,24.07
2016-06-02T09:13:03.967Z,24.05
2016-06-02T09:14:03.548Z,23.94
2016-06-02T09:15:00.021Z,23.9
2016-06-02T09:15:58.007Z,23.77
2016-06-02T09:17:01.245Z,23.76
2016-06-02T09:17:59.231Z,23.76
2016-06-02T09:19:00.468Z,23.75
2016-06-02T09:19:59.253Z,23.7
2016-06-02T09:21:02.677Z,23.58
2016-06-02T09:21:58.899Z,23.6
2016-06-02T09:22:58.667Z,23.5
2016-06-02T09:23:58.295Z,23.46
2016-06-02T09:24:59.594Z,23.47
2016-06-02T09:25:58.908Z,23.43
2016-06-02T09:26:58.397Z,23.49
2016-06-02T09:27:58.556Z,23.49
2016-06-02T09:28:58.605Z,23.6
2016-06-02T09:29:58.827Z,23.7
2016-06-02T09:31:00.094Z,23.77
2016-06-02T09:31:58.816Z,23.7
2016-06-02T09:32:58.663Z,23.64
2016-06-02T09:33:58.727Z,23.58
2016-06-02T09:34:58.793Z,23.46
2016-06-02T09:35:58.827Z,23.42
2016-06-02T09:36:58.846Z,23.4
2016-06-02T09:37:58.910Z,23.38
2016-06-02T09:38:59.101Z,23.46
2016-06-02T09:39:59.149Z,23.46
2016-06-02T09:40:59.794Z,23.4
2016-06-02T09:41:58.952Z,23.46
2016-06-02T09:42:58.987Z,23.42
2016-06-02T09:43:59.160Z,23.34
2016-06-02T09:44:59.210Z,23.49
2016-06-02T09:45:59.132Z,23.5
2016-06-02T09:46:59.451Z,23.61
2016-06-02T09:47:59.341Z,23.5
2016-06-02T09:48:59.390Z,23.67
2016-06-02T09:49:59.471Z,23.65
2016-06-02T09:50:59.474Z,23.71
2016-06-02T09:51:59.539Z,23.94
2016-06-02T09:52:59.573Z,24
2016-06-02T09:53:59.622Z,24.27
2016-06-02T09:54:59.501Z,24.2
2016-06-02T09:56:00.065Z,24.45
2016-06-02T09:56:59.772Z,24.5
2016-06-02T09:57:59.820Z,24.6
2016-06-02T09:58:59.839Z,24.68
2016-06-02T09:59:59.889Z,24.85
2016-06-02T10:00:59.970Z,24.85
2016-06-02T10:01:59.988Z,24.9
2016-06-02T10:03:00.022Z,24.88
2016-06-02T10:04:00.119Z,24.92
2016-06-02T10:05:00.136Z,24.79
2016-06-02T10:06:00.467Z,24.88
2016-06-02T10:07:00.080Z,24.71
2016-06-02T10:08:00.301Z,24.69
2016-06-02T10:09:00.304Z,24.76
2016-06-02T10:10:00.368Z,24.77
2016-06-02T10:11:00.403Z,24.9
2016-06-02T10:12:00.796Z,24.83
2016-06-02T10:13:00.548Z,24.95
2016-06-02T10:14:00.535Z,25.01
2016-06-02T10:15:00.601Z,24.91
2016-06-02T10:16:00.635Z,24.98
2016-06-02T10:17:00.731Z,25
2016-06-02T10:18:00.749Z,24.98
2016-06-02T10:19:00.767Z,24.85
2016-06-02T10:20:00.802Z,24.85
2016-06-02T10:21:00.820Z,24.79
2016-06-02T10:22:00.917Z,24.71
2016-06-02T10:23:01.498Z,24.85
2016-06-02T10:24:01.095Z,24.88
2016-06-02T10:25:01.315Z,24.87
2016-06-02T10:26:01.146Z,25.01
2016-06-02T10:27:01.148Z,25.02
2016-06-02T10:28:01.184Z,25
2016-06-02T10:29:01.263Z,24.92
2016-06-02T10:30:01.282Z,24.85
2016-06-02T10:31:01.316Z,24.94
2016-06-02T10:32:01.397Z,24.95
2016-06-02T10:33:01.414Z,24.97
2016-06-02T10:34:01.449Z,25.13
2016-06-02T10:35:01.342Z,25.37
2016-06-02T10:36:01.595Z,25.47
2016-06-02T10:37:02.207Z,25.57
2016-06-02T10:38:01.632Z,25.67
2016-06-02T10:39:01.572Z,25.82
2016-06-02T10:40:01.762Z,25.84
2016-06-02T10:41:02.405Z,25.72
2016-06-02T10:42:01.907Z,25.54
2016-06-02T10:43:01.941Z,25.49
2016-06-02T10:44:01.944Z,25.34
2016-06-02T10:45:02.697Z,25.53
2016-06-02T10:46:02.059Z,25.62
2016-06-02T10:47:02.093Z,26.06
2016-06-02T10:48:02.159Z,26.28
2016-06-02T10:49:02.193Z,26.5
2016-06-02T10:50:02.289Z,26.67
2016-06-02T10:51:02.354Z,26.86
2016-06-02T10:52:02.873Z,27.05
2016-06-02T10:53:02.563Z,27.41
2016-06-02T10:54:02.456Z,27.8
2016-06-02T10:55:02.521Z,28.16
2016-06-02T10:56:02.601Z,28.75
2016-06-02T10:57:02.620Z,29.4
2016-06-02T10:58:02.653Z,30.31
2016-06-02T10:59:02.735Z,31.24
2016-06-02T11:00:04.459Z,32.05
2016-06-02T11:01:02.959Z,32.81
2016-06-02T11:02:03.024Z,33.42
2016-06-02T11:03:05.592Z,34.02
2016-06-02T11:04:02.889Z,34.44
2016-06-02T11:05:03.080Z,34.64
2016-06-02T11:06:03.019Z,34.94
2016-06-02T11:07:03.272Z,35.1
2016-06-02T11:08:03.322Z,35.2
2016-06-02T11:09:03.309Z,35.32
2016-06-02T11:10:03.389Z,35.62
2016-06-02T11:11:03.691Z,36.17
2016-06-02T11:12:03.519Z,36.77
2016-06-02T11:13:03.743Z,37.36
2016-06-02T11:14:03.634Z,37.98
2016-06-02T11:15:05.140Z,38.53
2016-06-02T11:16:06.112Z,38.79
2016-06-02T11:17:07.505Z,39.03
2016-06-02T11:18:06.133Z,39.27
2016-06-02T11:19:05.416Z,39.64
2016-06-02T11:20:05.231Z,39.78
2016-06-02T11:21:05.671Z,39.61
2016-06-02T11:22:04.549Z,38.85
2016-06-02T11:23:04.146Z,38.32
2016-06-02T11:24:04.273Z,38.07
2016-06-02T11:25:04.620Z,37.98
2016-06-02T11:26:04.372Z,38.11
2016-06-02T11:27:04.422Z,38.15
2016-06-02T11:28:04.456Z,38.38
2016-06-02T11:29:04.600Z,38.66
2016-06-02T11:30:04.665Z,38.78
2016-06-02T11:31:04.902Z,39.24
2016-06-02T11:32:04.497Z,39.4
2016-06-02T11:33:04.751Z,39.59
2016-06-02T11:34:04.785Z,39.89
2016-06-02T11:35:04.694Z,40.38
2016-06-02T11:36:05.041Z,40.75
2016-06-02T11:37:05.964Z,40.86
2016-06-02T11:38:05.280Z,40.96
2016-06-02T11:39:05.127Z,41.02
2016-06-02T11:40:05.394Z,41.21
2016-06-02T11:41:05.210Z,41.58
2016-06-02T11:42:06.807Z,41.75
2016-06-02T11:43:05.653Z,42.01
2016-06-02T11:44:05.483Z,42.29
2016-06-02T11:45:05.533Z,42.56
2016-06-02T11:46:06.052Z,42.69
2016-06-02T11:47:05.616Z,42.7
2016-06-02T11:48:05.885Z,42.37
2016-06-02T11:49:05.762Z,41.73
2016-06-02T11:50:05.703Z,40.76
2016-06-02T11:51:05.893Z,39.81
2016-06-02T11:52:05.896Z,38.73
2016-06-02T11:53:06.055Z,37.89
2016-06-02T11:54:06.026Z,37.23
2016-06-02T11:55:06.060Z,36.73
2016-06-02T11:56:06.829Z,36.57
2016-06-02T11:57:06.206Z,36.64
2016-06-02T11:58:06.256Z,37.04
2016-06-02T11:59:06.086Z,37.29
2016-06-02T12:00:06.371Z,37.04
2016-06-02T12:01:06.420Z,36.67
2016-06-02T12:02:06.501Z,36.06
2016-06-02T12:03:06.394Z,35.6
2016-06-02T12:04:06.616Z,35.81
2016-06-02T12:05:06.852Z,36.23
2016-06-02T12:06:06.746Z,37.05
2016-06-02T12:07:07.858Z,37.71
2016-06-02T12:08:07.580Z,38.57
2016-06-02T12:09:06.911Z,38.92
2016-06-02T12:10:07.053Z,38.78
2016-06-02T12:11:09.352Z,38.51
2016-06-02T12:12:08.763Z,37.89
2016-06-02T12:13:07.140Z,37.42
2016-06-02T12:14:07.768Z,36.76
2016-06-02T12:15:11.208Z,36.2
2016-06-02T12:16:07.335Z,35.63
2016-06-02T12:17:07.322Z,35.18
2016-06-02T12:18:07.403Z,35.11
2016-06-02T12:19:07.312Z,35.32
2016-06-02T12:20:07.393Z,35.76
2016-06-02T12:21:07.552Z,36.49
2016-06-02T12:22:07.617Z,37.32
2016-06-02T12:23:07.542Z,38.2
2016-06-02T12:24:07.623Z,38.95
2016-06-02T12:25:09.204Z,39.69
2016-06-02T12:26:07.893Z,40.4
2016-06-02T12:27:08.053Z,41.03
2016-06-02T12:28:07.962Z,41.55
2016-06-02T12:29:08.104Z,41.94
2016-06-02T12:30:08.107Z,42.38
2016-06-02T12:31:08.141Z,42.81
2016-06-02T12:32:10.613Z,43.03
2016-06-02T12:33:08.115Z,42.95
2016-06-02T12:34:10.190Z,43.06
2016-06-02T12:35:09.846Z,43.25
2016-06-02T12:36:11.579Z,43.48
2016-06-02T12:37:12.656Z,43.8
2016-06-02T12:38:09.562Z,43.98
2016-06-02T12:39:08.633Z,43.97
2016-06-02T12:40:12.614Z,43.42
2016-06-02T12:41:09.439Z,42.95
2016-06-02T12:42:08.983Z,42.22
2016-06-02T12:43:09.074Z,41.25
2016-06-02T12:44:09.819Z,40.52
2016-06-02T12:45:10.544Z,39.65
2016-06-02T12:46:09.254Z,38.92
2016-06-02T12:47:12.821Z,38.22
2016-06-02T12:48:09.390Z,37.58
2016-06-02T12:49:09.474Z,36.98
2016-06-02T12:50:09.337Z,36.43
2016-06-02T12:51:09.559Z,35.93
2016-06-02T12:52:09.657Z,35.42
2016-06-02T12:53:09.676Z,35.1
2016-06-02T12:54:09.587Z,35.07
2016-06-02T12:55:10.121Z,35.2
2016-06-02T12:56:09.889Z,35.28
2016-06-02T12:57:09.892Z,35.18
2016-06-02T12:58:09.943Z,35.03